This is the latest recevied weather packets stored in our database for station/object GW1492. If no packets are shown the sender has not sent any weather packets the latest 10 day(s).
| Time | Temp. | Humidity | Pressure | Rain* | Wind** | Luminosity | Snow |
|---|---|---|---|---|---|---|---|
| 1777147975 | 16.67° C | 90% | 1013.2 hPa | 0 mm | - | - | - |
| 1777147250 | 16.67° C | 90% | 1013.2 hPa | 0 mm | - | - | - |
| 1777145776 | 16.67° C | 88% | 1013.5 hPa | 0 mm | - | - | - |
| 1777143993 | 16.67° C | 90% | 1013.8 hPa | 0 mm | - | - | - |
| 1777143284 | 16.67° C | 90% | 1013.5 hPa | 0 mm | - | - | - |
| 1777142900 | 16.67° C | 89% | 1013.8 hPa | 0 mm | - | - | - |
| 1777140042 | 16.67° C | 90% | 1013.5 hPa | 0 mm | - | - | - |
| 1777138609 | 16.67° C | 88% | 1013.5 hPa | 0 mm | - | - | - |
| 1777132457 | 17.78° C | 81% | 1013.8 hPa | 0 mm | - | - | - |
| 1777132131 | 18.33° C | 78% | 1013.8 hPa | 0 mm | - | - | - |
| 1777131375 | 18.33° C | 79% | 1013.8 hPa | 0 mm | - | - | - |
| 1777129214 | 19.44° C | 73% | 1013.5 hPa | 0 mm | - | - | - |
| 1777128501 | 18.89° C | 73% | 1013.5 hPa | 0 mm | - | - | - |
| 1777127450 | 17.78° C | 76% | 1013.5 hPa | 0 mm | - | - | - |
| 1777123843 | 17.78° C | 80% | 1013.5 hPa | 0 mm | - | - | - |
| 1777123476 | 17.78° C | 80% | 1013.5 hPa | 0 mm | - | - | - |
| 1777121660 | 16.67° C | 82% | 1013.2 hPa | 0 mm | - | - | - |
| 1777112681 | 14.44° C | 83% | 1012.5 hPa | 0 mm | - | - | - |
| 1777105103 | 15° C | 80% | 1012.1 hPa | 0 mm | - | - | - |
| 1777104380 | 15° C | 79% | 1012.1 hPa | 0 mm | - | - | - |
| 1777101152 | 15° C | 78% | 1012.5 hPa | 0 mm | - | - | - |
| 1777098290 | 15° C | 77% | 1012.5 hPa | 0 mm | - | - | - |
| 1777094690 | 14.44° C | 80% | 1012.8 hPa | 0 mm | - | - | - |
| 1777092876 | 15° C | 76% | 1012.8 hPa | 0 mm | - | - | - |
| 1777090711 | 15.56° C | 74% | 1012.8 hPa | 0 mm | - | - | - |
* Rain since midnight (hover to see other rain measurements)
** Current wind speed in m/s (hover to see current wind gust speed)